Lynn, MA (01902)

6:16 AM EDT on July 27, 2016 (GMT -0400)
WC1H | | Change Station

Elev 85 ft 42.47 °N, 70.95 °W | Updated 8 seconds ago

Clear
Clear
71.4 °F
Feels Like 74 °F
N
0.0
Wind Variable Wind from North
Gusts 1.0 mph

Today
High -- | Low -- °F
--% Chance of Precip.
Yesterday
High -- | Low -- °F
Precip. -- in
Pressure 29.90 in
Visibility 10.0 miles
Clouds Clear
Heat Index 74 °F
Dew Point 61 °F
Humidity 70%
Rainfall 0.00 in
Snow Depth Not available.
5:31 AM 8:08 PM
Last Quarter, 45% visible
METAR KBVY 270953Z AUTO 30003KT 10SM CLR 18/16 A2991 RMK AO2 SLP123 T01780156 $
Pressure 29.90 in
Visibility 10.0 miles
Clouds Clear
Heat Index 74 °F
Dew Point 61 °F
Humidity 70%
Rainfall 0.00 in
Snow Depth Not available.
5:31 AM 8:08 PM
Last Quarter, 45% visible
METAR KBVY 270953Z AUTO 30003KT 10SM CLR 18/16 A2991 RMK AO2 SLP123 T01780156 $

10-Day Weather Forecast

Almanac

Astronomy

Jul. 27, 2016 Rise Set
Actual Time
Civil Twilight
Nautical Twilight
Astronomical Twilight
Moon
Length of Visible Light
Length of Day
Tomorrow will be .
, % of the Moon is Illuminated

Today's Extremes

State Highs State Lows

Community

WunderPhotos

Upload Photos

1,927,816 photos uploaded!

WunderBlog® & News

Nearby

Air Quality

  Air Quality AQ Index Pollutant
Not available.

Snow Depth

Station Depth Elevation

Earthquake Activity

City Distance Mag. Time & Date
Minimum magnitude displayed is 2.5.

Coastal Water Temperatures

Place Temperature

Stations

Nearby Weather Stations

Station Location Temp. Windchill Dew Point Humidity Wind Precip. Elev Updated Type
                   

Watches & Warnings

There are currently no watches in effect.